LFRO/LAI METAR and TAF weather

Enter ICAO airport designator
Station Type Date Time Source
LFRO METAR 2020/09/26 11:00 UTC NOAA

LFRO 261100Z AUTO 36010KT 310V030 9999 FEW046 14/04 Q1015


Station Type Date Time Source
LFRO Decoded METAR 2020/09/26 11:00 UTC NOAA

Lannion / Servel, France (LFRO) 48-45N 003-28W
Sep 26, 2020 - 07:00 AM EDT / 2020.09.26 1100 UTC
Wind: from the N (360 degrees) at 12 MPH (10 KT) (direction variable):0
Visibility: greater than 7 mile(s):0
Sky conditions: mostly clear
Temperature: 57 F (14 C)
Dew Point: 39 F (4 C)
Relative Humidity: 50%
Pressure (altimeter): 29.97 in. Hg (1015 hPa)
ob: LFRO 261100Z AUTO 36010KT 310V030 9999 FEW046 14/04 Q1015
cycle: 11

Station Type Date Time Source
LFRO TAF 2019/05/15 19:06 UTC NOAA

TAF LFRO 151936Z 1519/1612 CNL

Example: see airport list